Time,TemperatureF,DewpointF,PressureIn,WindDirection,WindDirectionDegrees,WindSpeedMPH,WindSpeedGustMPH,Humidity,HourlyPrecipIn,Conditions,Clouds,dailyrainin,SoftwareType,DateUTC
2013-07-09 00:17:00,63.7,62.0,30.14,ENE,70,0.0,1.0,93,0.00,,,0.16,weatherlink.com 1.10,2013-07-09 04:17:00,
2013-07-09 00:30:00,63.8,62.0,30.14,ENE,70,0.0,0.0,94,0.00,,,0.16,weatherlink.com 1.10,2013-07-09 04:30:00,
2013-07-09 00:45:00,63.8,62.0,30.14,ENE,70,0.0,0.0,94,0.00,,,0.16,weatherlink.com 1.10,2013-07-09 04:45:00,
2013-07-09 01:00:00,63.7,62.0,30.13,ENE,70,0.0,0.0,94,0.00,,,0.16,weatherlink.com 1.10,2013-07-09 05:00:00,
2013-07-09 01:15:00,63.7,62.0,30.13,ENE,70,0.0,1.0,94,0.00,,,0.16,weatherlink.com 1.10,2013-07-09 05:15:00,
2013-07-09 01:30:00,63.8,62.0,30.13,ENE,70,0.0,0.0,94,0.00,,,0.16,weatherlink.com 1.10,2013-07-09 05:30:00,
2013-07-09 01:45:00,63.8,62.0,30.13,ENE,70,0.0,0.0,94,0.00,,,0.16,weatherlink.com 1.10,2013-07-09 05:45:00,
2013-07-09 02:00:00,63.8,62.0,30.13,ENE,70,0.0,1.0,94,0.00,,,0.16,weatherlink.com 1.10,2013-07-09 06:00:00,
2013-07-09 02:15:00,63.8,62.0,30.12,ENE,70,0.0,0.0,94,0.00,,,0.16,weatherlink.com 1.10,2013-07-09 06:15:00,
2013-07-09 02:30:00,63.7,62.0,30.12,ENE,70,0.0,1.0,94,0.00,,,0.16,weatherlink.com 1.10,2013-07-09 06:30:00,
2013-07-09 02:45:00,63.6,62.0,30.11,ENE,70,0.0,1.0,95,0.00,,,0.16,weatherlink.com 1.10,2013-07-09 06:45:00,
2013-07-09 03:00:00,63.7,62.0,30.12,ENE,70,0.0,0.0,95,0.00,,,0.16,weatherlink.com 1.10,2013-07-09 07:00:00,
2013-07-09 03:15:00,63.8,62.0,30.11,ENE,70,0.0,0.0,95,0.00,,,0.16,weatherlink.com 1.10,2013-07-09 07:15:00,
2013-07-09 03:30:00,63.6,62.0,30.11,ENE,70,0.0,1.0,94,0.00,,,0.16,weatherlink.com 1.10,2013-07-09 07:30:00,
2013-07-09 03:45:00,63.6,62.0,30.11,ENE,70,0.0,1.0,95,0.00,,,0.16,weatherlink.com 1.10,2013-07-09 07:45:00,
2013-07-09 04:01:00,63.5,62.0,30.11,ENE,70,0.0,0.0,95,0.00,,,0.16,weatherlink.com 1.10,2013-07-09 08:01:00,
2013-07-09 04:15:00,63.6,62.0,30.11,ENE,70,0.0,0.0,95,0.00,,,0.16,weatherlink.com 1.10,2013-07-09 08:15:00,
2013-07-09 04:30:00,63.6,62.0,30.12,ENE,70,0.0,0.0,95,0.00,,,0.00,weatherlink.com 1.10,2013-07-09 08:30:00,
2013-07-09 04:45:00,63.6,62.0,30.12,ENE,70,0.0,0.0,95,0.00,,,0.00,weatherlink.com 1.10,2013-07-09 08:45:00,
2013-07-09 05:00:00,63.7,62.0,30.12,ENE,70,0.0,1.0,95,0.00,,,0.00,weatherlink.com 1.10,2013-07-09 09:00:00,
2013-07-09 05:15:00,63.6,62.0,30.12,ENE,70,0.0,0.0,95,0.00,,,0.00,weatherlink.com 1.10,2013-07-09 09:15:00,
2013-07-09 05:30:00,63.6,62.0,30.12,ENE,70,0.0,0.0,95,0.00,,,0.00,weatherlink.com 1.10,2013-07-09 09:30:00,
2013-07-09 05:45:00,63.4,62.0,30.11,ENE,70,0.0,0.0,95,0.00,,,0.00,weatherlink.com 1.10,2013-07-09 09:45:00,
2013-07-09 06:00:00,63.3,62.0,30.11,ENE,70,0.0,0.0,95,0.00,,,0.00,weatherlink.com 1.10,2013-07-09 10:00:00,
2013-07-09 06:16:00,63.2,62.0,30.11,ENE,70,0.0,1.0,94,0.00,,,0.00,weatherlink.com 1.10,2013-07-09 10:16:00,
2013-07-09 06:31:00,63.2,62.0,30.11,ENE,70,0.0,1.0,95,0.00,,,0.00,weatherlink.com 1.10,2013-07-09 10:31:00,
2013-07-09 06:46:00,63.3,62.0,30.12,ENE,70,0.0,1.0,95,0.00,,,0.00,weatherlink.com 1.10,2013-07-09 10:46:00,
2013-07-09 07:01:00,63.4,62.0,30.12,ENE,70,0.0,1.0,95,0.00,,,0.00,weatherlink.com 1.10,2013-07-09 11:01:00,
2013-07-09 07:16:00,63.5,62.0,30.12,ENE,70,0.0,1.0,95,0.00,,,0.00,weatherlink.com 1.10,2013-07-09 11:16:00,
2013-07-09 07:31:00,63.6,62.0,30.13,ENE,70,0.0,0.0,95,0.00,,,0.00,weatherlink.com 1.10,2013-07-09 11:31:00,
2013-07-09 07:46:00,63.7,62.0,30.12,ENE,70,0.0,1.0,95,0.00,,,0.00,weatherlink.com 1.10,2013-07-09 11:46:00,
2013-07-09 08:01:00,64.1,63.0,30.12,ENE,70,0.0,1.0,95,0.00,,,0.00,weatherlink.com 1.10,2013-07-09 12:01:00,
2013-07-09 08:16:00,64.4,63.0,30.12,ENE,70,0.0,1.0,95,0.00,,,0.00,weatherlink.com 1.10,2013-07-09 12:16:00,
2013-07-09 08:31:00,64.6,63.0,30.13,ENE,70,0.0,1.0,94,0.00,,,0.00,weatherlink.com 1.10,2013-07-09 12:31:00,
2013-07-09 08:46:00,64.7,63.0,30.13,ENE,70,0.0,2.0,94,0.00,,,0.00,weatherlink.com 1.10,2013-07-09 12:46:00,
2013-07-09 09:01:00,65.2,64.0,30.13,ENE,70,0.0,2.0,94,0.00,,,0.00,weatherlink.com 1.10,2013-07-09 13:01:00,
2013-07-09 09:16:00,66.7,65.0,30.13,South,169,0.0,1.0,94,0.00,,,0.00,weatherlink.com 1.10,2013-07-09 13:16:00,
2013-07-09 09:31:00,69.8,66.0,30.13,South,183,0.0,1.0,88,0.00,,,0.00,weatherlink.com 1.10,2013-07-09 13:31:00,
2013-07-09 09:46:00,72.1,67.0,30.13,ESE,117,0.0,2.0,84,0.00,,,0.00,weatherlink.com 1.10,2013-07-09 13:46:00,
2013-07-09 10:01:00,74.1,67.0,30.13,ESE,117,0.0,1.0,79,0.00,,,0.00,weatherlink.com 1.10,2013-07-09 14:01:00,
2013-07-09 10:16:00,77.1,68.0,30.12,East,79,1.0,3.0,74,0.00,,,0.00,weatherlink.com 1.10,2013-07-09 14:16:00,
2013-07-09 10:31:00,79.0,68.0,30.12,East,101,0.0,5.0,69,0.00,,,0.00,weatherlink.com 1.10,2013-07-09 14:31:00,
2013-07-09 10:46:00,80.4,67.0,30.12,East,100,0.0,5.0,64,0.00,,,0.00,weatherlink.com 1.10,2013-07-09 14:46:00,
2013-07-09 11:01:00,81.6,66.0,30.13,ENE,72,0.0,3.0,60,0.00,,,0.00,weatherlink.com 1.10,2013-07-09 15:01:00,
2013-07-09 11:16:00,80.6,65.0,30.13,SE,126,0.0,5.0,59,0.00,,,0.00,weatherlink.com 1.10,2013-07-09 15:16:00,
2013-07-09 11:31:00,80.6,66.0,30.13,East,90,2.0,5.0,62,0.00,,,0.00,weatherlink.com 1.10,2013-07-09 15:31:00,
2013-07-09 11:46:00,81.6,66.0,30.13,East,100,5.0,8.0,59,0.00,,,0.00,weatherlink.com 1.10,2013-07-09 15:46:00,
2013-07-09 12:01:00,82.7,65.0,30.12,East,94,0.0,2.0,55,0.00,,,0.00,weatherlink.com 1.10,2013-07-09 16:01:00,
2013-07-09 12:16:00,83.3,64.0,30.13,ESE,107,1.0,4.0,53,0.00,,,0.00,weatherlink.com 1.10,2013-07-09 16:16:00,
2013-07-09 12:31:00,82.6,65.0,30.13,ESE,105,0.0,4.0,56,0.00,,,0.00,weatherlink.com 1.10,2013-07-09 16:31:00,
2013-07-09 12:46:00,81.9,67.0,30.13,ESE,119,0.0,5.0,60,0.00,,,0.00,weatherlink.com 1.10,2013-07-09 16:46:00,
2013-07-09 13:01:00,81.8,65.0,30.12,East,100,0.0,5.0,58,0.00,,,0.00,weatherlink.com 1.10,2013-07-09 17:01:00,
2013-07-09 13:16:00,82.6,66.0,30.11,East,97,0.0,3.0,57,0.00,,,0.00,weatherlink.com 1.10,2013-07-09 17:16:00,
2013-07-09 13:31:00,83.0,66.0,30.10,ENE,66,2.0,3.0,56,0.00,,,0.00,weatherlink.com 1.10,2013-07-09 17:31:00,
2013-07-09 13:46:00,84.0,65.0,30.10,East,87,5.0,5.0,53,0.00,,,0.00,weatherlink.com 1.10,2013-07-09 17:46:00,
2013-07-09 14:01:00,85.0,65.0,30.09,ESE,104,0.0,2.0,52,0.00,,,0.00,weatherlink.com 1.10,2013-07-09 18:01:00,
2013-07-09 14:17:00,85.8,66.0,30.09,East,101,2.0,6.0,52,0.00,,,0.00,weatherlink.com 1.10,2013-07-09 18:17:00,
2013-07-09 14:32:00,86.2,66.0,30.08,NE,34,0.0,3.0,52,0.00,,,0.00,weatherlink.com 1.10,2013-07-09 18:32:00,
2013-07-09 14:47:00,86.1,66.0,30.07,East,96,2.0,3.0,52,0.00,,,0.00,weatherlink.com 1.10,2013-07-09 18:47:00,
2013-07-09 15:03:00,86.5,67.0,30.07,East,80,2.0,6.0,52,0.00,,,0.00,weatherlink.com 1.10,2013-07-09 19:03:00,
2013-07-09 15:17:00,86.9,68.0,30.06,East,96,0.0,4.0,53,0.00,,,0.00,weatherlink.com 1.10,2013-07-09 19:17:00,
2013-07-09 15:32:00,87.4,67.0,30.05,East,84,1.0,3.0,51,0.00,,,0.00,weatherlink.com 1.10,2013-07-09 19:32:00,
2013-07-09 15:47:00,86.6,69.0,30.05,East,88,0.0,3.0,55,0.00,,,0.00,weatherlink.com 1.10,2013-07-09 19:47:00,
2013-07-09 16:02:00,86.2,65.0,30.04,NE,46,1.0,5.0,50,0.00,,,0.00,weatherlink.com 1.10,2013-07-09 20:02:00,
2013-07-09 16:17:00,85.8,66.0,30.04,East,90,3.0,5.0,52,0.00,,,0.00,weatherlink.com 1.10,2013-07-09 20:17:00,
2013-07-09 16:32:00,84.9,67.0,30.04,ESE,112,0.0,3.0,55,0.00,,,0.00,weatherlink.com 1.10,2013-07-09 20:32:00,
2013-07-09 16:47:00,84.9,67.0,30.03,ESE,112,1.0,2.0,56,0.00,,,0.00,weatherlink.com 1.10,2013-07-09 20:47:00,
2013-07-09 17:02:00,83.6,70.0,30.03,East,94,0.0,2.0,64,0.00,,,0.00,weatherlink.com 1.10,2013-07-09 21:02:00,
2013-07-09 17:17:00,82.5,70.0,30.02,SW,227,2.0,2.0,65,0.00,,,0.00,weatherlink.com 1.10,2013-07-09 21:17:00,
2013-07-09 17:32:00,83.2,71.0,30.02,ENE,58,0.0,4.0,67,0.00,,,0.00,weatherlink.com 1.10,2013-07-09 21:32:00,
2013-07-09 17:47:00,83.0,70.0,30.02,SE,132,0.0,1.0,65,0.00,,,0.00,weatherlink.com 1.10,2013-07-09 21:47:00,
2013-07-09 18:02:00,82.3,70.0,30.02,ENE,61,0.0,3.0,67,0.00,,,0.00,weatherlink.com 1.10,2013-07-09 22:02:00,
2013-07-09 18:32:00,79.8,69.0,30.02,WSW,238,0.0,1.0,70,0.00,,,0.00,weatherlink.com 1.10,2013-07-09 22:32:00,
2013-07-09 18:48:00,78.5,68.0,30.03,WSW,238,1.0,2.0,71,0.00,,,0.00,weatherlink.com 1.10,2013-07-09 22:48:00,
2013-07-09 19:02:00,77.7,69.0,30.03,WSW,238,0.0,1.0,75,0.00,,,0.00,weatherlink.com 1.10,2013-07-09 23:02:00,
2013-07-09 19:17:00,77.3,69.0,30.04,SSW,206,0.0,1.0,75,0.00,,,0.00,weatherlink.com 1.10,2013-07-09 23:17:00,
2013-07-09 19:32:00,76.9,69.0,30.04,SW,219,0.0,1.0,77,0.00,,,0.00,weatherlink.com 1.10,2013-07-09 23:32:00,
2013-07-09 19:47:00,76.4,69.0,30.04,SW,219,0.0,1.0,77,0.00,,,0.00,weatherlink.com 1.10,2013-07-09 23:47:00,
2013-07-09 20:02:00,75.3,68.0,30.04,SW,219,0.0,1.0,79,0.00,,,0.00,weatherlink.com 1.10,2013-07-10 00:02:00,
2013-07-09 20:17:00,74.1,69.0,30.05,SW,226,0.0,2.0,83,0.00,,,0.00,weatherlink.com 1.10,2013-07-10 00:17:00,
2013-07-09 20:32:00,73.5,68.0,30.04,SW,226,0.0,1.0,84,0.00,,,0.00,weatherlink.com 1.10,2013-07-10 00:32:00,
2013-07-09 20:47:00,72.8,68.0,30.05,SW,226,0.0,1.0,86,0.00,,,0.00,weatherlink.com 1.10,2013-07-10 00:47:00,
2013-07-09 21:02:00,72.3,68.0,30.05,SW,226,0.0,1.0,87,0.00,,,0.00,weatherlink.com 1.10,2013-07-10 01:02:00,
2013-07-09 21:17:00,71.7,68.0,30.05,SW,226,0.0,2.0,88,0.00,,,0.00,weatherlink.com 1.10,2013-07-10 01:17:00,
2013-07-09 21:32:00,71.1,67.0,30.05,SW,226,0.0,0.0,87,0.00,,,0.00,weatherlink.com 1.10,2013-07-10 01:32:00,
2013-07-09 21:47:00,70.6,67.0,30.06,SW,226,0.0,1.0,87,0.00,,,0.00,weatherlink.com 1.10,2013-07-10 01:47:00,
2013-07-09 22:02:00,69.8,67.0,30.07,SW,226,0.0,2.0,89,0.00,,,0.00,weatherlink.com 1.10,2013-07-10 02:02:00,
2013-07-09 22:17:00,69.2,66.0,30.07,SW,226,0.0,1.0,88,0.00,,,0.00,weatherlink.com 1.10,2013-07-10 02:17:00,
2013-07-09 22:32:00,68.6,65.0,30.07,SW,226,0.0,0.0,88,0.00,,,0.00,weatherlink.com 1.10,2013-07-10 02:32:00,
2013-07-09 22:47:00,68.3,65.0,30.06,SW,226,0.0,1.0,89,0.00,,,0.00,weatherlink.com 1.10,2013-07-10 02:47:00,
2013-07-09 23:02:00,68.0,64.0,30.07,SW,226,0.0,1.0,88,0.00,,,0.00,weatherlink.com 1.10,2013-07-10 03:02:00,
2013-07-09 23:17:00,67.2,64.0,30.07,SW,226,0.0,0.0,89,0.00,,,0.00,weatherlink.com 1.10,2013-07-10 03:17:00,
2013-07-09 23:35:00,66.8,64.0,30.07,SW,226,1.0,2.0,91,0.00,,,0.00,weatherlink.com 1.10,2013-07-10 03:35:00,
2013-07-09 23:47:00,66.7,64.0,30.07,WSW,252,1.0,3.0,91,0.00,,,0.00,weatherlink.com 1.10,2013-07-10 03:47:00,